Palm City, Florida
Current Conditions -  °F | °C
As of 9:35 PM on Friday 24 Oct 2014 (Local Time) from KSUA Reporting Station
Broken Clouds Broken Clouds  
Wind Chill: 73°   Ceiling: 3600
Heat Index: 73°   Visibility: 10mi
Dew Point: 63°   Wind: 8mph
Humidity: 69%   Direction: 40°NE
Pressure: 29.9"   Gusts: NA
Location:  27.16°N, 80.27°W
Report Text: KSUA 250135Z AUTO 04007KT 10SM BKN036 23/17 A2990 RMK AO2
Loading
Personal Weather Stations






























Interactive Weather Map New forecast layout! Learn more

10-Day Weather Forecast

Advertisements
Track Severe Weather on mobile